sensor_id;sensor_type;location;lat;lon;timestamp;P1;durP1;ratioP1;P2;durP2;ratioP2
24961;SDS011;12992;50.884;13.668;2023-04-21T00:02:04;15.60;;;9.25;;
24961;SDS011;12992;50.884;13.668;2023-04-21T00:04:30;16.65;;;10.57;;
24961;SDS011;12992;50.884;13.668;2023-04-21T00:06:56;15.93;;;11.07;;
24961;SDS011;12992;50.884;13.668;2023-04-21T00:09:25;16.73;;;9.88;;
24961;SDS011;12992;50.884;13.668;2023-04-21T00:11:50;20.17;;;11.73;;
24961;SDS011;12992;50.884;13.668;2023-04-21T00:14:16;17.38;;;10.63;;
24961;SDS011;12992;50.884;13.668;2023-04-21T00:16:41;18.95;;;12.10;;
24961;SDS011;12992;50.884;13.668;2023-04-21T00:19:07;17.80;;;11.05;;
24961;SDS011;12992;50.884;13.668;2023-04-21T00:21:33;15.88;;;10.07;;
24961;SDS011;12992;50.884;13.668;2023-04-21T00:23:58;14.77;;;9.30;;
24961;SDS011;12992;50.884;13.668;2023-04-21T00:26:24;17.25;;;10.40;;
24961;SDS011;12992;50.884;13.668;2023-04-21T00:28:50;14.88;;;9.50;;
24961;SDS011;12992;50.884;13.668;2023-04-21T00:31:15;17.95;;;11.30;;
24961;SDS011;12992;50.884;13.668;2023-04-21T00:33:41;16.38;;;9.65;;
24961;SDS011;12992;50.884;13.668;2023-04-21T00:36:06;17.48;;;9.70;;
24961;SDS011;12992;50.884;13.668;2023-04-21T00:38:31;17.17;;;9.68;;
24961;SDS011;12992;50.884;13.668;2023-04-21T00:40:57;15.68;;;9.57;;
24961;SDS011;12992;50.884;13.668;2023-04-21T00:43:22;13.40;;;9.70;;
24961;SDS011;12992;50.884;13.668;2023-04-21T00:45:52;12.80;;;8.82;;
24961;SDS011;12992;50.884;13.668;2023-04-21T00:48:17;14.27;;;8.57;;
24961;SDS011;12992;50.884;13.668;2023-04-21T00:50:42;14.57;;;8.75;;
24961;SDS011;12992;50.884;13.668;2023-04-21T00:53:09;16.00;;;9.80;;
24961;SDS011;12992;50.884;13.668;2023-04-21T00:55:35;17.13;;;10.43;;
24961;SDS011;12992;50.884;13.668;2023-04-21T00:58:01;19.58;;;10.85;;
24961;SDS011;12992;50.884;13.668;2023-04-21T01:00:27;17.38;;;10.82;;
24961;SDS011;12992;50.884;13.668;2023-04-21T01:02:53;19.08;;;11.98;;
24961;SDS011;12992;50.884;13.668;2023-04-21T01:05:19;19.70;;;11.55;;
24961;SDS011;12992;50.884;13.668;2023-04-21T01:07:44;20.52;;;11.02;;
24961;SDS011;12992;50.884;13.668;2023-04-21T01:10:10;21.10;;;11.75;;
24961;SDS011;12992;50.884;13.668;2023-04-21T01:12:45;18.63;;;11.63;;
24961;SDS011;12992;50.884;13.668;2023-04-21T01:15:12;19.52;;;11.05;;
24961;SDS011;12992;50.884;13.668;2023-04-21T01:17:38;15.98;;;9.57;;
24961;SDS011;12992;50.884;13.668;2023-04-21T01:20:08;17.65;;;9.48;;
24961;SDS011;12992;50.884;13.668;2023-04-21T01:22:38;14.68;;;9.38;;
24961;SDS011;12992;50.884;13.668;2023-04-21T01:25:06;14.52;;;9.05;;
24961;SDS011;12992;50.884;13.668;2023-04-21T01:27:32;16.42;;;9.30;;
24961;SDS011;12992;50.884;13.668;2023-04-21T01:29:57;15.57;;;9.30;;
24961;SDS011;12992;50.884;13.668;2023-04-21T01:32:27;15.90;;;9.43;;
24961;SDS011;12992;50.884;13.668;2023-04-21T01:34:54;16.42;;;9.52;;
24961;SDS011;12992;50.884;13.668;2023-04-21T01:37:21;17.35;;;9.02;;
24961;SDS011;12992;50.884;13.668;2023-04-21T01:39:51;14.70;;;8.70;;
24961;SDS011;12992;50.884;13.668;2023-04-21T01:42:21;14.05;;;9.00;;
24961;SDS011;12992;50.884;13.668;2023-04-21T01:44:47;17.00;;;9.88;;
24961;SDS011;12992;50.884;13.668;2023-04-21T01:47:15;16.95;;;10.65;;
24961;SDS011;12992;50.884;13.668;2023-04-21T01:49:41;18.90;;;9.75;;
24961;SDS011;12992;50.884;13.668;2023-04-21T01:52:07;13.05;;;8.45;;
24961;SDS011;12992;50.884;13.668;2023-04-21T01:54:32;14.27;;;8.88;;
24961;SDS011;12992;50.884;13.668;2023-04-21T01:56:59;13.07;;;8.25;;
24961;SDS011;12992;50.884;13.668;2023-04-21T01:59:24;13.32;;;9.15;;
24961;SDS011;12992;50.884;13.668;2023-04-21T02:01:50;13.05;;;8.82;;
24961;SDS011;12992;50.884;13.668;2023-04-21T02:04:15;14.13;;;9.43;;
24961;SDS011;12992;50.884;13.668;2023-04-21T02:06:41;12.02;;;8.50;;
24961;SDS011;12992;50.884;13.668;2023-04-21T02:09:07;14.32;;;7.75;;
24961;SDS011;12992;50.884;13.668;2023-04-21T02:11:32;18.08;;;8.60;;
24961;SDS011;12992;50.884;13.668;2023-04-21T02:13:58;17.13;;;9.35;;
24961;SDS011;12992;50.884;13.668;2023-04-21T02:16:23;16.23;;;9.35;;
24961;SDS011;12992;50.884;13.668;2023-04-21T02:18:53;16.27;;;9.20;;
24961;SDS011;12992;50.884;13.668;2023-04-21T02:21:26;16.35;;;9.60;;
24961;SDS011;12992;50.884;13.668;2023-04-21T02:23:51;15.88;;;10.27;;
24961;SDS011;12992;50.884;13.668;2023-04-21T02:26:17;19.80;;;10.63;;
24961;SDS011;12992;50.884;13.668;2023-04-21T02:28:43;18.55;;;9.50;;
24961;SDS011;12992;50.884;13.668;2023-04-21T02:31:08;13.90;;;9.00;;
24961;SDS011;12992;50.884;13.668;2023-04-21T02:33:34;14.25;;;9.25;;
24961;SDS011;12992;50.884;13.668;2023-04-21T02:36:00;14.88;;;9.30;;
24961;SDS011;12992;50.884;13.668;2023-04-21T02:38:25;15.43;;;9.70;;
24961;SDS011;12992;50.884;13.668;2023-04-21T02:40:50;18.80;;;9.30;;
24961;SDS011;12992;50.884;13.668;2023-04-21T02:43:17;17.60;;;9.00;;
24961;SDS011;12992;50.884;13.668;2023-04-21T02:45:42;14.80;;;8.13;;
24961;SDS011;12992;50.884;13.668;2023-04-21T02:48:08;12.50;;;8.70;;
24961;SDS011;12992;50.884;13.668;2023-04-21T02:50:33;14.13;;;8.60;;
24961;SDS011;12992;50.884;13.668;2023-04-21T02:52:59;11.48;;;7.55;;
24961;SDS011;12992;50.884;13.668;2023-04-21T02:55:24;12.15;;;7.40;;
24961;SDS011;12992;50.884;13.668;2023-04-21T02:57:50;17.27;;;6.88;;
24961;SDS011;12992;50.884;13.668;2023-04-21T03:00:15;10.55;;;6.55;;
24961;SDS011;12992;50.884;13.668;2023-04-21T03:02:41;12.00;;;6.75;;
24961;SDS011;12992;50.884;13.668;2023-04-21T03:05:07;12.38;;;6.82;;
24961;SDS011;12992;50.884;13.668;2023-04-21T03:07:33;11.70;;;7.28;;
24961;SDS011;12992;50.884;13.668;2023-04-21T03:09:58;10.50;;;7.03;;
24961;SDS011;12992;50.884;13.668;2023-04-21T03:12:26;12.18;;;7.45;;
24961;SDS011;12992;50.884;13.668;2023-04-21T03:14:51;14.13;;;7.13;;
24961;SDS011;12992;50.884;13.668;2023-04-21T03:17:16;11.38;;;6.70;;
24961;SDS011;12992;50.884;13.668;2023-04-21T03:19:42;13.15;;;6.97;;
24961;SDS011;12992;50.884;13.668;2023-04-21T03:22:07;10.18;;;6.93;;
24961;SDS011;12992;50.884;13.668;2023-04-21T03:24:33;10.93;;;7.00;;
24961;SDS011;12992;50.884;13.668;2023-04-21T03:26:58;11.18;;;6.53;;
24961;SDS011;12992;50.884;13.668;2023-04-21T03:29:24;12.05;;;7.60;;
24961;SDS011;12992;50.884;13.668;2023-04-21T03:31:49;11.75;;;7.97;;
24961;SDS011;12992;50.884;13.668;2023-04-21T03:34:15;13.43;;;7.15;;
24961;SDS011;12992;50.884;13.668;2023-04-21T03:36:41;17.70;;;7.85;;
24961;SDS011;12992;50.884;13.668;2023-04-21T03:39:06;10.82;;;6.88;;
24961;SDS011;12992;50.884;13.668;2023-04-21T03:41:32;13.02;;;7.20;;
24961;SDS011;12992;50.884;13.668;2023-04-21T03:43:58;14.05;;;7.43;;
24961;SDS011;12992;50.884;13.668;2023-04-21T03:46:23;47.05;;;32.45;;
24961;SDS011;12992;50.884;13.668;2023-04-21T03:48:49;31.30;;;20.63;;
24961;SDS011;12992;50.884;13.668;2023-04-21T03:51:15;21.52;;;12.52;;
24961;SDS011;12992;50.884;13.668;2023-04-21T03:53:40;13.98;;;8.48;;
24961;SDS011;12992;50.884;13.668;2023-04-21T03:56:06;18.52;;;8.68;;
24961;SDS011;12992;50.884;13.668;2023-04-21T03:58:31;14.52;;;8.90;;
24961;SDS011;12992;50.884;13.668;2023-04-21T04:00:57;11.63;;;7.80;;
24961;SDS011;12992;50.884;13.668;2023-04-21T04:03:22;15.75;;;8.82;;
24961;SDS011;12992;50.884;13.668;2023-04-21T04:05:47;13.88;;;8.65;;
24961;SDS011;12992;50.884;13.668;2023-04-21T04:08:12;12.25;;;7.45;;
24961;SDS011;12992;50.884;13.668;2023-04-21T04:10:38;11.60;;;6.72;;
24961;SDS011;12992;50.884;13.668;2023-04-21T04:13:03;11.18;;;6.50;;
24961;SDS011;12992;50.884;13.668;2023-04-21T04:15:28;12.98;;;6.85;;
24961;SDS011;12992;50.884;13.668;2023-04-21T04:17:54;11.35;;;6.50;;
24961;SDS011;12992;50.884;13.668;2023-04-21T04:20:19;10.75;;;6.03;;
24961;SDS011;12992;50.884;13.668;2023-04-21T04:22:45;8.85;;;5.68;;
24961;SDS011;12992;50.884;13.668;2023-04-21T04:25:10;9.15;;;6.53;;
24961;SDS011;12992;50.884;13.668;2023-04-21T04:27:37;10.77;;;6.25;;
24961;SDS011;12992;50.884;13.668;2023-04-21T04:30:02;10.10;;;5.40;;
24961;SDS011;12992;50.884;13.668;2023-04-21T04:32:29;11.10;;;6.32;;
24961;SDS011;12992;50.884;13.668;2023-04-21T04:34:55;5.93;;;4.95;;
24961;SDS011;12992;50.884;13.668;2023-04-21T04:37:21;11.02;;;6.07;;
24961;SDS011;12992;50.884;13.668;2023-04-21T04:39:46;9.23;;;5.78;;
24961;SDS011;12992;50.884;13.668;2023-04-21T04:42:11;9.77;;;5.78;;
24961;SDS011;12992;50.884;13.668;2023-04-21T04:44:37;8.80;;;6.03;;
24961;SDS011;12992;50.884;13.668;2023-04-21T04:47:02;12.80;;;6.78;;
24961;SDS011;12992;50.884;13.668;2023-04-21T04:49:28;10.95;;;6.75;;
24961;SDS011;12992;50.884;13.668;2023-04-21T04:51:53;10.98;;;6.78;;
24961;SDS011;12992;50.884;13.668;2023-04-21T04:54:19;10.55;;;6.60;;
24961;SDS011;12992;50.884;13.668;2023-04-21T04:56:44;8.27;;;5.93;;
24961;SDS011;12992;50.884;13.668;2023-04-21T04:59:10;8.20;;;5.68;;
24961;SDS011;12992;50.884;13.668;2023-04-21T05:01:35;11.10;;;6.85;;
24961;SDS011;12992;50.884;13.668;2023-04-21T05:04:02;10.38;;;6.65;;
24961;SDS011;12992;50.884;13.668;2023-04-21T05:06:27;12.90;;;6.53;;
24961;SDS011;12992;50.884;13.668;2023-04-21T05:08:53;9.80;;;6.03;;
24961;SDS011;12992;50.884;13.668;2023-04-21T05:11:18;11.52;;;7.35;;
24961;SDS011;12992;50.884;13.668;2023-04-21T05:13:44;13.73;;;8.27;;
24961;SDS011;12992;50.884;13.668;2023-04-21T05:16:09;17.73;;;9.30;;
24961;SDS011;12992;50.884;13.668;2023-04-21T05:18:35;13.95;;;8.63;;
24961;SDS011;12992;50.884;13.668;2023-04-21T05:21:01;11.98;;;8.23;;
24961;SDS011;12992;50.884;13.668;2023-04-21T05:23:26;11.98;;;8.38;;
24961;SDS011;12992;50.884;13.668;2023-04-21T05:25:51;14.55;;;7.70;;
24961;SDS011;12992;50.884;13.668;2023-04-21T05:28:17;13.48;;;8.40;;
24961;SDS011;12992;50.884;13.668;2023-04-21T05:30:42;12.52;;;8.82;;
24961;SDS011;12992;50.884;13.668;2023-04-21T05:33:07;14.02;;;8.90;;
24961;SDS011;12992;50.884;13.668;2023-04-21T05:35:33;14.35;;;8.43;;
24961;SDS011;12992;50.884;13.668;2023-04-21T05:37:59;11.55;;;7.40;;
24961;SDS011;12992;50.884;13.668;2023-04-21T05:40:24;12.77;;;6.72;;
24961;SDS011;12992;50.884;13.668;2023-04-21T05:42:50;12.30;;;6.60;;
24961;SDS011;12992;50.884;13.668;2023-04-21T05:45:15;16.15;;;9.13;;
24961;SDS011;12992;50.884;13.668;2023-04-21T05:47:40;65.20;;;27.10;;
24961;SDS011;12992;50.884;13.668;2023-04-21T05:50:06;33.45;;;18.77;;
24961;SDS011;12992;50.884;13.668;2023-04-21T05:52:31;12.43;;;5.07;;
24961;SDS011;12992;50.884;13.668;2023-04-21T05:54:58;13.98;;;4.55;;
24961;SDS011;12992;50.884;13.668;2023-04-21T05:57:24;8.70;;;4.25;;
24961;SDS011;12992;50.884;13.668;2023-04-21T05:59:49;9.77;;;4.40;;
24961;SDS011;12992;50.884;13.668;2023-04-21T06:02:15;12.93;;;5.80;;
24961;SDS011;12992;50.884;13.668;2023-04-21T06:04:40;14.00;;;5.53;;
24961;SDS011;12992;50.884;13.668;2023-04-21T06:07:06;9.57;;;5.90;;
24961;SDS011;12992;50.884;13.668;2023-04-21T06:09:33;12.07;;;5.65;;
24961;SDS011;12992;50.884;13.668;2023-04-21T06:11:59;12.70;;;4.90;;
24961;SDS011;12992;50.884;13.668;2023-04-21T06:14:25;10.57;;;4.13;;
24961;SDS011;12992;50.884;13.668;2023-04-21T06:16:51;7.72;;;3.97;;
24961;SDS011;12992;50.884;13.668;2023-04-21T06:19:16;7.70;;;4.30;;
24961;SDS011;12992;50.884;13.668;2023-04-21T06:21:41;7.97;;;3.58;;
24961;SDS011;12992;50.884;13.668;2023-04-21T06:24:07;6.93;;;3.45;;
24961;SDS011;12992;50.884;13.668;2023-04-21T06:26:33;16.35;;;4.20;;
24961;SDS011;12992;50.884;13.668;2023-04-21T06:28:58;8.38;;;3.92;;
24961;SDS011;12992;50.884;13.668;2023-04-21T06:31:24;7.47;;;3.90;;
24961;SDS011;12992;50.884;13.668;2023-04-21T06:33:49;8.05;;;3.85;;
24961;SDS011;12992;50.884;13.668;2023-04-21T06:36:14;3.97;;;3.00;;
24961;SDS011;12992;50.884;13.668;2023-04-21T06:38:40;9.77;;;4.10;;
24961;SDS011;12992;50.884;13.668;2023-04-21T06:41:07;6.80;;;3.80;;
24961;SDS011;12992;50.884;13.668;2023-04-21T06:43:33;15.15;;;6.00;;
24961;SDS011;12992;50.884;13.668;2023-04-21T06:45:58;9.95;;;4.10;;
24961;SDS011;12992;50.884;13.668;2023-04-21T06:48:23;15.40;;;5.47;;
24961;SDS011;12992;50.884;13.668;2023-04-21T06:50:49;8.65;;;3.95;;
24961;SDS011;12992;50.884;13.668;2023-04-21T06:53:14;12.68;;;3.80;;
24961;SDS011;12992;50.884;13.668;2023-04-21T06:55:42;15.30;;;4.85;;
24961;SDS011;12992;50.884;13.668;2023-04-21T06:58:08;8.60;;;4.43;;
24961;SDS011;12992;50.884;13.668;2023-04-21T07:00:33;12.02;;;4.50;;
24961;SDS011;12992;50.884;13.668;2023-04-21T07:02:59;13.48;;;4.35;;
24961;SDS011;12992;50.884;13.668;2023-04-21T07:05:24;11.80;;;4.75;;
24961;SDS011;12992;50.884;13.668;2023-04-21T07:07:50;9.70;;;4.15;;
24961;SDS011;12992;50.884;13.668;2023-04-21T07:10:15;11.32;;;4.90;;
24961;SDS011;12992;50.884;13.668;2023-04-21T07:12:43;9.73;;;3.50;;
24961;SDS011;12992;50.884;13.668;2023-04-21T07:15:11;20.23;;;13.32;;
24961;SDS011;12992;50.884;13.668;2023-04-21T07:17:37;7.90;;;3.65;;
24961;SDS011;12992;50.884;13.668;2023-04-21T07:20:02;11.05;;;3.53;;
24961;SDS011;12992;50.884;13.668;2023-04-21T07:22:28;9.82;;;4.68;;
24961;SDS011;12992;50.884;13.668;2023-04-21T07:24:53;11.75;;;4.95;;
24961;SDS011;12992;50.884;13.668;2023-04-21T07:27:18;9.93;;;3.75;;
24961;SDS011;12992;50.884;13.668;2023-04-21T07:29:44;14.05;;;4.50;;
24961;SDS011;12992;50.884;13.668;2023-04-21T07:32:09;9.85;;;4.93;;
24961;SDS011;12992;50.884;13.668;2023-04-21T07:34:35;10.50;;;4.43;;
24961;SDS011;12992;50.884;13.668;2023-04-21T07:37:00;7.57;;;3.70;;
24961;SDS011;12992;50.884;13.668;2023-04-21T07:39:25;8.27;;;3.40;;
24961;SDS011;12992;50.884;13.668;2023-04-21T07:41:50;6.55;;;2.90;;
24961;SDS011;12992;50.884;13.668;2023-04-21T07:44:16;7.90;;;4.40;;
24961;SDS011;12992;50.884;13.668;2023-04-21T07:46:41;9.73;;;5.88;;
24961;SDS011;12992;50.884;13.668;2023-04-21T07:49:07;11.38;;;3.45;;
24961;SDS011;12992;50.884;13.668;2023-04-21T07:51:32;9.90;;;3.50;;
24961;SDS011;12992;50.884;13.668;2023-04-21T07:53:57;5.43;;;2.60;;
24961;SDS011;12992;50.884;13.668;2023-04-21T07:56:23;3.90;;;2.67;;
24961;SDS011;12992;50.884;13.668;2023-04-21T07:58:48;11.38;;;3.10;;
24961;SDS011;12992;50.884;13.668;2023-04-21T08:01:14;5.03;;;2.63;;
24961;SDS011;12992;50.884;13.668;2023-04-21T08:03:39;8.93;;;3.00;;
24961;SDS011;12992;50.884;13.668;2023-04-21T08:06:05;5.68;;;3.10;;
24961;SDS011;12992;50.884;13.668;2023-04-21T08:08:30;9.00;;;2.72;;
24961;SDS011;12992;50.884;13.668;2023-04-21T08:10:56;5.70;;;3.15;;
24961;SDS011;12992;50.884;13.668;2023-04-21T08:13:21;9.27;;;3.08;;
24961;SDS011;12992;50.884;13.668;2023-04-21T08:15:49;7.35;;;3.40;;
24961;SDS011;12992;50.884;13.668;2023-04-21T08:18:18;7.00;;;2.25;;
24961;SDS011;12992;50.884;13.668;2023-04-21T08:20:43;9.98;;;3.17;;
24961;SDS011;12992;50.884;13.668;2023-04-21T08:23:10;9.63;;;3.00;;
24961;SDS011;12992;50.884;13.668;2023-04-21T08:25:36;8.60;;;4.55;;
24961;SDS011;12992;50.884;13.668;2023-04-21T08:28:01;9.75;;;3.20;;
24961;SDS011;12992;50.884;13.668;2023-04-21T08:30:26;6.82;;;2.30;;
24961;SDS011;12992;50.884;13.668;2023-04-21T08:32:52;8.15;;;2.60;;
24961;SDS011;12992;50.884;13.668;2023-04-21T08:35:18;6.03;;;2.80;;
24961;SDS011;12992;50.884;13.668;2023-04-21T08:37:43;8.00;;;2.55;;
24961;SDS011;12992;50.884;13.668;2023-04-21T08:40:09;7.20;;;2.83;;
24961;SDS011;12992;50.884;13.668;2023-04-21T08:42:35;7.72;;;2.72;;
24961;SDS011;12992;50.884;13.668;2023-04-21T08:45:02;8.18;;;2.22;;
24961;SDS011;12992;50.884;13.668;2023-04-21T08:47:28;11.45;;;2.60;;
24961;SDS011;12992;50.884;13.668;2023-04-21T08:49:54;9.95;;;2.83;;
24961;SDS011;12992;50.884;13.668;2023-04-21T08:52:20;10.10;;;2.42;;
24961;SDS011;12992;50.884;13.668;2023-04-21T08:54:46;11.38;;;2.33;;
24961;SDS011;12992;50.884;13.668;2023-04-21T08:57:15;5.70;;;2.20;;
24961;SDS011;12992;50.884;13.668;2023-04-21T08:59:41;10.98;;;2.78;;
24961;SDS011;12992;50.884;13.668;2023-04-21T09:02:10;7.50;;;2.33;;
24961;SDS011;12992;50.884;13.668;2023-04-21T09:04:41;8.48;;;2.22;;
24961;SDS011;12992;50.884;13.668;2023-04-21T09:07:07;4.43;;;2.53;;
24961;SDS011;12992;50.884;13.668;2023-04-21T09:09:50;6.88;;;2.15;;
24961;SDS011;12992;50.884;13.668;2023-04-21T09:14:41;16.23;;;2.55;;
24961;SDS011;12992;50.884;13.668;2023-04-21T09:17:07;8.55;;;2.38;;
24961;SDS011;12992;50.884;13.668;2023-04-21T09:19:33;9.45;;;2.35;;
24961;SDS011;12992;50.884;13.668;2023-04-21T09:22:01;6.28;;;2.08;;
24961;SDS011;12992;50.884;13.668;2023-04-21T09:24:27;7.80;;;2.35;;
24961;SDS011;12992;50.884;13.668;2023-04-21T09:26:54;7.40;;;2.65;;
24961;SDS011;12992;50.884;13.668;2023-04-21T09:29:22;9.07;;;2.20;;
24961;SDS011;12992;50.884;13.668;2023-04-21T09:31:49;6.72;;;2.00;;
24961;SDS011;12992;50.884;13.668;2023-04-21T09:34:19;6.72;;;2.30;;
24961;SDS011;12992;50.884;13.668;2023-04-21T09:36:58;10.65;;;2.35;;
24961;SDS011;12992;50.884;13.668;2023-04-21T09:39:25;7.13;;;1.90;;
24961;SDS011;12992;50.884;13.668;2023-04-21T09:41:52;5.05;;;2.00;;
24961;SDS011;12992;50.884;13.668;2023-04-21T09:44:17;6.43;;;1.95;;
24961;SDS011;12992;50.884;13.668;2023-04-21T09:46:43;6.28;;;1.95;;
24961;SDS011;12992;50.884;13.668;2023-04-21T09:49:13;11.05;;;2.03;;
24961;SDS011;12992;50.884;13.668;2023-04-21T09:51:41;8.57;;;2.05;;
24961;SDS011;12992;50.884;13.668;2023-04-21T09:54:10;4.90;;;2.15;;
24961;SDS011;12992;50.884;13.668;2023-04-21T09:56:40;6.13;;;2.20;;
24961;SDS011;12992;50.884;13.668;2023-04-21T09:59:07;5.20;;;1.75;;
24961;SDS011;12992;50.884;13.668;2023-04-21T10:01:41;7.03;;;2.00;;
24961;SDS011;12992;50.884;13.668;2023-04-21T10:04:08;8.15;;;2.25;;
24961;SDS011;12992;50.884;13.668;2023-04-21T10:06:34;4.07;;;1.73;;
24961;SDS011;12992;50.884;13.668;2023-04-21T10:09:00;7.43;;;1.90;;
24961;SDS011;12992;50.884;13.668;2023-04-21T10:11:28;10.43;;;2.22;;
24961;SDS011;12992;50.884;13.668;2023-04-21T10:13:53;6.70;;;1.88;;
24961;SDS011;12992;50.884;13.668;2023-04-21T10:16:19;7.85;;;1.98;;
24961;SDS011;12992;50.884;13.668;2023-04-21T10:18:46;6.63;;;2.10;;
24961;SDS011;12992;50.884;13.668;2023-04-21T10:21:17;7.07;;;2.15;;
24961;SDS011;12992;50.884;13.668;2023-04-21T10:23:49;5.68;;;2.60;;
24961;SDS011;12992;50.884;13.668;2023-04-21T10:26:24;8.63;;;2.23;;
24961;SDS011;12992;50.884;13.668;2023-04-21T10:31:30;4.97;;;1.75;;
24961;SDS011;12992;50.884;13.668;2023-04-21T10:36:32;4.82;;;2.15;;
24961;SDS011;12992;50.884;13.668;2023-04-21T10:39:06;5.55;;;1.95;;
24961;SDS011;12992;50.884;13.668;2023-04-21T10:41:32;8.00;;;1.92;;
24961;SDS011;12992;50.884;13.668;2023-04-21T10:43:58;6.88;;;2.05;;
24961;SDS011;12992;50.884;13.668;2023-04-21T10:49:31;6.87;;;2.00;;
24961;SDS011;12992;50.884;13.668;2023-04-21T10:55:09;5.53;;;1.80;;
24961;SDS011;12992;50.884;13.668;2023-04-21T10:57:18;4.78;;;2.00;;
24961;SDS011;12992;50.884;13.668;2023-04-21T10:59:44;3.50;;;1.75;;
24961;SDS011;12992;50.884;13.668;2023-04-21T11:02:15;4.80;;;2.40;;
24961;SDS011;12992;50.884;13.668;2023-04-21T11:04:42;5.20;;;2.47;;
24961;SDS011;12992;50.884;13.668;2023-04-21T11:07:14;7.25;;;2.90;;
24961;SDS011;12992;50.884;13.668;2023-04-21T11:09:44;6.85;;;2.35;;
24961;SDS011;12992;50.884;13.668;2023-04-21T11:12:14;5.10;;;2.13;;
24961;SDS011;12992;50.884;13.668;2023-04-21T11:14:44;4.88;;;2.20;;
24961;SDS011;12992;50.884;13.668;2023-04-21T11:17:14;6.63;;;1.98;;
24961;SDS011;12992;50.884;13.668;2023-04-21T11:19:44;4.60;;;2.63;;
24961;SDS011;12992;50.884;13.668;2023-04-21T11:22:10;5.32;;;2.30;;
24961;SDS011;12992;50.884;13.668;2023-04-21T11:24:35;6.55;;;2.30;;
24961;SDS011;12992;50.884;13.668;2023-04-21T11:27:01;5.70;;;2.33;;
24961;SDS011;12992;50.884;13.668;2023-04-21T11:29:26;8.00;;;2.40;;
24961;SDS011;12992;50.884;13.668;2023-04-21T11:31:53;4.38;;;2.20;;
24961;SDS011;12992;50.884;13.668;2023-04-21T11:34:19;5.68;;;2.35;;
24961;SDS011;12992;50.884;13.668;2023-04-21T11:36:46;6.03;;;2.22;;
24961;SDS011;12992;50.884;13.668;2023-04-21T11:39:12;8.68;;;2.50;;
24961;SDS011;12992;50.884;13.668;2023-04-21T11:41:44;3.92;;;2.47;;
24961;SDS011;12992;50.884;13.668;2023-04-21T11:44:10;5.68;;;2.45;;
24961;SDS011;12992;50.884;13.668;2023-04-21T11:46:37;4.55;;;2.13;;
24961;SDS011;12992;50.884;13.668;2023-04-21T11:49:12;6.32;;;2.70;;
24961;SDS011;12992;50.884;13.668;2023-04-21T11:51:40;6.28;;;2.60;;
24961;SDS011;12992;50.884;13.668;2023-04-21T11:54:10;5.80;;;2.40;;
24961;SDS011;12992;50.884;13.668;2023-04-21T11:56:39;5.88;;;2.45;;
24961;SDS011;12992;50.884;13.668;2023-04-21T11:59:06;7.43;;;2.50;;
24961;SDS011;12992;50.884;13.668;2023-04-21T12:01:33;5.47;;;2.30;;
24961;SDS011;12992;50.884;13.668;2023-04-21T12:03:58;5.45;;;1.80;;
24961;SDS011;12992;50.884;13.668;2023-04-21T12:06:24;2.95;;;2.17;;
24961;SDS011;12992;50.884;13.668;2023-04-21T12:09:34;8.07;;;2.50;;
24961;SDS011;12992;50.884;13.668;2023-04-21T12:11:41;6.03;;;2.60;;
24961;SDS011;12992;50.884;13.668;2023-04-21T12:14:07;6.57;;;2.45;;
24961;SDS011;12992;50.884;13.668;2023-04-21T12:16:32;5.88;;;2.33;;
24961;SDS011;12992;50.884;13.668;2023-04-21T12:19:01;7.57;;;2.63;;
24961;SDS011;12992;50.884;13.668;2023-04-21T12:21:26;6.75;;;2.30;;
24961;SDS011;12992;50.884;13.668;2023-04-21T12:23:52;6.10;;;2.50;;
24961;SDS011;12992;50.884;13.668;2023-04-21T12:26:17;6.55;;;2.42;;
24961;SDS011;12992;50.884;13.668;2023-04-21T12:28:43;7.28;;;2.50;;
24961;SDS011;12992;50.884;13.668;2023-04-21T12:31:08;6.15;;;2.15;;
24961;SDS011;12992;50.884;13.668;2023-04-21T12:33:33;5.63;;;2.10;;
24961;SDS011;12992;50.884;13.668;2023-04-21T12:35:59;4.60;;;2.30;;
24961;SDS011;12992;50.884;13.668;2023-04-21T12:38:24;4.38;;;2.20;;
24961;SDS011;12992;50.884;13.668;2023-04-21T12:40:50;6.65;;;2.10;;
24961;SDS011;12992;50.884;13.668;2023-04-21T12:43:15;8.32;;;2.17;;
24961;SDS011;12992;50.884;13.668;2023-04-21T12:45:40;5.75;;;2.03;;
24961;SDS011;12992;50.884;13.668;2023-04-21T12:48:06;4.85;;;2.13;;
24961;SDS011;12992;50.884;13.668;2023-04-21T12:50:31;5.63;;;2.50;;
24961;SDS011;12992;50.884;13.668;2023-04-21T12:52:57;4.25;;;1.98;;
24961;SDS011;12992;50.884;13.668;2023-04-21T12:55:23;5.65;;;1.95;;
24961;SDS011;12992;50.884;13.668;2023-04-21T12:57:48;5.18;;;1.90;;
24961;SDS011;12992;50.884;13.668;2023-04-21T13:00:15;3.80;;;1.98;;
24961;SDS011;12992;50.884;13.668;2023-04-21T13:02:41;4.70;;;2.10;;
24961;SDS011;12992;50.884;13.668;2023-04-21T13:05:06;5.00;;;2.15;;
24961;SDS011;12992;50.884;13.668;2023-04-21T13:07:34;7.68;;;2.20;;
24961;SDS011;12992;50.884;13.668;2023-04-21T13:10:00;6.47;;;2.08;;
24961;SDS011;12992;50.884;13.668;2023-04-21T13:12:26;5.80;;;2.17;;
24961;SDS011;12992;50.884;13.668;2023-04-21T13:14:52;4.65;;;2.00;;
24961;SDS011;12992;50.884;13.668;2023-04-21T13:17:17;3.90;;;1.95;;
24961;SDS011;12992;50.884;13.668;2023-04-21T13:19:42;3.55;;;1.77;;
24961;SDS011;12992;50.884;13.668;2023-04-21T13:22:08;5.53;;;2.00;;
24961;SDS011;12992;50.884;13.668;2023-04-21T13:24:33;5.57;;;2.25;;
24961;SDS011;12992;50.884;13.668;2023-04-21T13:26:59;8.60;;;2.20;;
24961;SDS011;12992;50.884;13.668;2023-04-21T13:29:25;9.10;;;2.13;;
24961;SDS011;12992;50.884;13.668;2023-04-21T13:31:54;7.45;;;1.90;;
24961;SDS011;12992;50.884;13.668;2023-04-21T13:34:20;3.55;;;1.85;;
24961;SDS011;12992;50.884;13.668;2023-04-21T13:36:45;4.93;;;1.90;;
24961;SDS011;12992;50.884;13.668;2023-04-21T13:39:11;5.43;;;1.75;;
24961;SDS011;12992;50.884;13.668;2023-04-21T13:41:36;3.08;;;1.90;;
24961;SDS011;12992;50.884;13.668;2023-04-21T13:44:01;4.45;;;1.92;;
24961;SDS011;12992;50.884;13.668;2023-04-21T13:46:27;4.70;;;2.00;;
24961;SDS011;12992;50.884;13.668;2023-04-21T13:48:52;6.68;;;2.42;;
24961;SDS011;12992;50.884;13.668;2023-04-21T13:51:18;2.40;;;1.98;;
24961;SDS011;12992;50.884;13.668;2023-04-21T13:53:44;4.43;;;1.70;;
24961;SDS011;12992;50.884;13.668;2023-04-21T13:56:09;4.45;;;2.00;;
24961;SDS011;12992;50.884;13.668;2023-04-21T13:58:35;5.20;;;2.22;;
24961;SDS011;12992;50.884;13.668;2023-04-21T14:01:01;6.38;;;2.08;;
24961;SDS011;12992;50.884;13.668;2023-04-21T14:03:28;6.90;;;2.10;;
24961;SDS011;12992;50.884;13.668;2023-04-21T14:05:54;11.13;;;3.05;;
24961;SDS011;12992;50.884;13.668;2023-04-21T14:08:19;11.63;;;4.57;;
24961;SDS011;12992;50.884;13.668;2023-04-21T14:10:45;8.68;;;3.50;;
24961;SDS011;12992;50.884;13.668;2023-04-21T14:13:10;37.60;;;13.93;;
24961;SDS011;12992;50.884;13.668;2023-04-21T14:15:35;36.83;;;13.88;;
24961;SDS011;12992;50.884;13.668;2023-04-21T14:18:01;21.73;;;10.20;;
24961;SDS011;12992;50.884;13.668;2023-04-21T14:20:27;11.27;;;4.60;;
24961;SDS011;12992;50.884;13.668;2023-04-21T14:22:52;6.53;;;3.20;;
24961;SDS011;12992;50.884;13.668;2023-04-21T14:25:17;8.27;;;2.85;;
24961;SDS011;12992;50.884;13.668;2023-04-21T14:27:43;5.85;;;2.10;;
24961;SDS011;12992;50.884;13.668;2023-04-21T14:30:08;6.05;;;2.47;;
24961;SDS011;12992;50.884;13.668;2023-04-21T14:32:34;5.90;;;2.20;;
24961;SDS011;12992;50.884;13.668;2023-04-21T14:34:59;4.30;;;2.30;;